Time;durP1;ratioP1;P1;durP2;ratioP2;P2;SDS_P1;SDS_P2;PMS_P1;PMS_P2;Temp;Humidity;BMP_temperature;BMP_pressure;BME280_temperature;BME280_humidity;BME280_pressure;Samples;Min_cycle;Max_cycle;Signal;HPM_P1;HPM_P2
2022/09/26 00:01:47;;;;;;;4.90;3.45;;;;;;;9.76;100.00;98197.06;4151018;28;20295;-49
2022/09/26 00:03:51;;;;;;;8.77;3.58;;;;;;;9.73;100.00;98183.91;4155680;28;20224;-49
2022/09/26 00:05:59;;;;;;;4.15;3.75;;;;;;;9.82;100.00;98193.34;4151559;28;20579;-48
2022/09/26 00:08:01;;;;;;;4.68;4.38;;;;;;;9.71;100.00;98194.25;4149938;28;20219;-49
2022/09/26 00:10:03;;;;;;;4.75;4.22;;;;;;;9.71;100.00;98184.19;4168273;28;20238;-48
2022/09/26 00:12:06;;;;;;;6.97;5.10;;;;;;;9.79;100.00;98196.56;4151898;28;20213;-49
2022/09/26 00:14:13;;;;;;;6.47;5.75;;;;;;;9.76;100.00;98186.97;4153343;28;20304;-49
2022/09/26 00:16:14;;;;;;;6.93;6.22;;;;;;;9.81;100.00;98194.44;4151122;28;20262;-48
2022/09/26 00:18:16;;;;;;;7.03;5.18;;;;;;;9.65;100.00;98190.66;4149865;28;20212;-49
2022/09/26 00:20:18;;;;;;;15.88;8.07;;;;;;;9.60;100.00;98182.38;4150016;28;20714;-48
2022/09/26 00:22:19;;;;;;;5.38;4.97;;;;;;;9.53;100.00;98183.63;4160933;28;20208;-50
2022/09/26 00:24:21;;;;;;;7.25;5.03;;;;;;;9.55;100.00;98178.75;4161448;28;20247;-49
2022/09/26 00:26:24;;;;;;;4.45;4.05;;;;;;;9.50;100.00;98181.41;4151398;28;20593;-49
2022/09/26 00:28:26;;;;;;;4.20;3.97;;;;;;;9.40;100.00;98175.78;4148893;28;20215;-48
2022/09/26 00:30:28;;;;;;;4.07;3.70;;;;;;;9.35;100.00;98183.94;4148542;28;20240;-48
2022/09/26 00:32:30;;;;;;;5.50;4.55;;;;;;;9.36;100.00;98180.13;4149938;28;20248;-49
2022/09/26 00:34:31;;;;;;;5.55;5.05;;;;;;;9.39;100.00;98179.59;4144798;28;20209;-49
2022/09/26 00:36:33;;;;;;;6.25;5.85;;;;;;;9.39;100.00;98179.59;4149045;28;20210;-49
2022/09/26 00:38:39;;;;;;;7.35;6.07;;;;;;;9.42;100.00;98174.47;4149995;28;20295;-49
2022/09/26 00:40:41;;;;;;;7.30;6.70;;;;;;;9.41;100.00;98172.81;4157260;28;20227;-49
2022/09/26 00:42:43;;;;;;;8.68;7.97;;;;;;;9.44;100.00;98166.03;4163875;28;20204;-50
2022/09/26 00:44:47;;;;;;;10.35;9.57;;;;;;;9.38;100.00;98165.13;4151263;28;20970;-48
2022/09/26 00:46:49;;;;;;;9.05;5.90;;;;;;;9.31;100.00;98166.38;4157620;28;20200;-48
2022/09/26 00:49:14;;;;;;;7.45;6.63;;;;;;;9.17;100.00;98156.88;4148530;28;20292;-49
2022/09/26 00:51:16;;;;;;;13.80;6.18;;;;;;;9.16;100.00;98155.25;4136571;28;20236;-49
2022/09/26 00:53:23;;;;;;;5.88;5.22;;;;;;;9.20;100.00;98159.09;4151522;28;20208;-49
2022/09/26 00:55:29;;;;;;;14.43;7.72;;;;;;;9.15;100.00;98156.31;4163615;28;20655;-49
2022/09/26 00:58:03;;;;;;;5.32;4.88;;;;;;;9.10;100.00;98148.03;4149947;28;20627;-49
2022/09/26 01:00:08;;;;;;;4.88;4.53;;;;;;;9.14;100.00;98149.22;4141234;28;20228;-49
2022/09/26 01:02:10;;;;;;;7.68;4.20;;;;;;;9.06;100.00;98153.19;4163631;28;20312;-49
2022/09/26 01:04:12;;;;;;;4.65;4.25;;;;;;;9.01;100.00;98155.00;4135956;28;20229;-49
2022/09/26 01:06:14;;;;;;;4.28;3.97;;;;;;;8.98;100.00;98156.34;4136311;28;20638;-50
2022/09/26 01:08:20;;;;;;;9.32;6.75;;;;;;;9.07;100.00;98148.53;4149545;28;20949;-49
2022/09/26 01:10:23;;;;;;;5.72;4.82;;;;;;;9.12;100.00;98151.34;4162324;28;20296;-50
2022/09/26 01:12:25;;;;;;;4.03;3.67;;;;;;;9.09;100.00;98143.66;4148158;28;20221;-49
2022/09/26 01:14:27;;;;;;;4.82;4.47;;;;;;;9.12;100.00;98149.44;4153593;28;20200;-50
2022/09/26 01:16:28;;;;;;;4.32;3.92;;;;;;;8.95;100.00;98139.63;4148393;28;20213;-49
2022/09/26 01:18:30;;;;;;;5.30;4.80;;;;;;;8.98;100.00;98131.78;4147120;28;20324;-49
2022/09/26 01:20:59;;;;;;;4.35;4.00;;;;;;;8.96;100.00;98131.16;4136130;28;20233;-49
2022/09/26 01:23:21;;;;;;;5.90;4.57;;;;;;;9.00;100.00;98126.03;4148794;28;20209;-49
2022/09/26 01:25:29;;;;;;;4.78;4.47;;;;;;;8.70;100.00;98120.91;4150387;28;20200;-49
2022/09/26 01:27:34;;;;;;;4.70;4.35;;;;;;;8.71;100.00;98116.31;4163858;28;20908;-48
2022/09/26 01:30:11;;;;;;;5.35;4.93;;;;;;;8.70;100.00;98111.94;4155300;28;20292;-49
2022/09/26 01:32:48;;;;;;;5.82;5.43;;;;;;;8.67;100.00;98115.97;4146272;28;20725;-49
2022/09/26 01:34:55;;;;;;;4.68;4.38;;;;;;;8.64;100.00;98116.50;4149707;28;20224;-49
2022/09/26 01:37:14;;;;;;;8.15;5.93;;;;;;;8.72;100.00;98117.97;4154633;28;20200;-50
2022/09/26 01:39:21;;;;;;;7.63;6.95;;;;;;;8.80;100.00;98123.00;4149508;28;20219;-49
2022/09/26 01:41:53;;;;;;;7.72;7.10;;;;;;;8.71;100.00;98117.16;4152435;28;20694;-49
2022/09/26 01:44:16;;;;;;;6.97;6.05;;;;;;;8.74;100.00;98121.28;4157556;28;20204;-48
2022/09/26 01:46:39;;;;;;;6.15;5.75;;;;;;;8.70;100.00;98117.38;4149626;28;20200;-49
2022/09/26 01:48:51;;;;;;;4.55;4.25;;;;;;;8.66;100.00;98108.03;4153210;28;20212;-49
2022/09/26 01:50:59;;;;;;;5.00;4.70;;;;;;;8.63;100.00;98108.53;4147043;28;22150;-49
2022/09/26 01:53:13;;;;;;;5.40;3.67;;;;;;;8.54;100.00;98112.75;4137470;28;20212;-49
2022/09/26 01:55:18;;;;;;;5.00;4.60;;;;;;;8.57;100.00;98104.06;4165214;28;20211;-50
2022/09/26 01:57:26;;;;;;;4.63;4.03;;;;;;;8.63;100.00;98100.38;4155569;28;20674;-50
2022/09/26 01:59:35;;;;;;;10.93;6.45;;;;;;;8.72;100.00;98090.69;4150425;28;20204;-49
2022/09/26 02:01:41;;;;;;;6.55;4.13;;;;;;;8.73;100.00;98086.88;4150864;28;20682;-49
2022/09/26 02:03:48;;;;;;;4.45;4.10;;;;;;;8.48;100.00;98083.75;4154276;28;20220;-49
2022/09/26 02:05:58;;;;;;;4.63;4.18;;;;;;;8.44;100.00;98088.03;4153201;28;20221;-49
2022/09/26 02:08:37;;;;;;;4.40;4.00;;;;;;;8.41;100.00;98089.34;4157347;28;20516;-49
2022/09/26 02:10:46;;;;;;;4.50;4.10;;;;;;;8.37;100.00;98082.75;4099602;28;20899;-50
2022/09/26 02:12:53;;;;;;;7.03;4.70;;;;;;;8.51;100.00;98077.78;4151973;28;20205;-49
2022/09/26 02:14:57;;;;;;;5.20;4.80;;;;;;;8.36;100.00;98080.28;4172079;28;20209;-49
2022/09/26 02:17:05;;;;;;;6.38;4.05;;;;;;;8.42;100.00;98068.38;4150133;28;20254;-49
2022/09/26 02:19:15;;;;;;;4.78;4.38;;;;;;;8.43;100.00;98070.03;4153048;28;20236;-49
2022/09/26 02:21:19;;;;;;;5.72;5.22;;;;;;;8.36;100.00;98069.38;4155129;28;20204;-49
2022/09/26 02:23:21;;;;;;;4.65;4.35;;;;;;;8.32;100.00;98062.75;4158293;28;20626;-49
2022/09/26 02:25:23;;;;;;;6.97;5.60;;;;;;;8.33;100.00;98075.28;4139832;28;20247;-49
2022/09/26 02:27:25;;;;;;;5.07;4.78;;;;;;;8.31;100.00;98064.66;4148602;28;20227;-49
2022/09/26 02:29:27;;;;;;;6.32;5.03;;;;;;;8.32;100.00;98070.94;4157929;28;20286;-49
2022/09/26 02:31:32;;;;;;;6.03;4.53;;;;;;;8.32;100.00;98068.19;4156441;28;20213;-49
2022/09/26 02:33:34;;;;;;;5.72;5.32;;;;;;;8.31;100.00;98066.56;4167954;28;20247;-50
2022/09/26 02:35:54;;;;;;;4.38;4.07;;;;;;;8.27;100.00;98062.66;4157430;28;20216;-50
2022/09/26 02:37:56;;;;;;;4.93;4.53;;;;;;;8.24;100.00;98054.97;4166675;28;20714;-50
2022/09/26 02:39:59;;;;;;;5.00;4.60;;;;;;;8.22;100.00;98052.50;4152818;28;20247;-49
2022/09/26 02:42:14;;;;;;;5.07;4.78;;;;;;;8.17;100.00;98043.38;4149432;28;20300;-49
2022/09/26 02:44:50;;;;;;;5.00;4.70;;;;;;;8.17;100.00;98054.28;4157321;28;20236;-49
2022/09/26 02:47:09;;;;;;;4.32;4.03;;;;;;;8.11;100.00;98047.94;4164551;28;20240;-49
2022/09/26 02:49:23;;;;;;;4.57;4.18;;;;;;;8.02;100.00;98049.38;4151358;28;20227;-50
2022/09/26 02:51:40;;;;;;;6.90;5.13;;;;;;;7.98;100.00;98034.63;4153663;28;20217;-50
2022/09/26 02:54:23;;;;;;;5.50;4.68;;;;;;;8.02;100.00;98041.22;4153670;28;20208;-49
2022/09/26 02:57:02;;;;;;;5.35;4.88;;;;;;;7.94;100.00;98038.88;4158365;28;20207;-49
2022/09/26 02:59:42;;;;;;;5.78;4.85;;;;;;;7.99;100.00;98035.44;4151839;28;20212;-49
2022/09/26 03:01:59;;;;;;;5.85;5.25;;;;;;;8.04;100.00;98027.34;4100395;28;20213;-49
2022/09/26 03:04:05;;;;;;;5.22;4.72;;;;;;;8.06;100.00;98017.03;4087671;29;20211;-50
2022/09/26 03:06:10;;;;;;;5.10;4.68;;;;;;;7.98;100.00;98014.72;4096555;28;20203;-50
2022/09/26 03:08:42;;;;;;;5.53;5.15;;;;;;;7.94;100.00;98005.38;4156841;28;20204;-50
2022/09/26 03:10:45;;;;;;;4.93;4.38;;;;;;;7.92;100.00;98011.06;4128053;28;20232;-50
2022/09/26 03:12:48;;;;;;;5.25;4.85;;;;;;;7.91;100.00;98005.88;4152822;28;20205;-50
2022/09/26 03:14:50;;;;;;;4.90;4.45;;;;;;;7.92;100.00;98007.50;4153122;28;20308;-50
2022/09/26 03:16:58;;;;;;;3.85;3.55;;;;;;;7.90;100.00;98001.50;4139638;28;20574;-49
2022/09/26 03:19:39;;;;;;;4.75;4.35;;;;;;;7.87;100.00;97999.25;4153361;28;20666;-49
2022/09/26 03:21:41;;;;;;;8.23;3.70;;;;;;;7.88;100.00;98011.81;4148942;28;20215;-49
2022/09/26 03:23:43;;;;;;;5.90;4.60;;;;;;;7.85;100.00;98009.56;4156642;28;20324;-50
2022/09/26 03:25:55;;;;;;;4.07;3.78;;;;;;;7.88;100.00;97995.47;4138753;28;20311;-49
2022/09/26 03:28:00;;;;;;;6.22;3.78;;;;;;;7.81;100.00;97986.63;4158161;28;20678;-50
2022/09/26 03:30:04;;;;;;;4.10;3.85;;;;;;;7.73;100.00;97987.00;4152886;28;20780;-51
2022/09/26 03:32:05;;;;;;;11.18;4.22;;;;;;;7.76;100.00;97997.44;4167285;28;20254;-50
2022/09/26 03:34:07;;;;;;;4.63;4.32;;;;;;;7.79;100.00;97980.59;4165353;28;20211;-49
2022/09/26 03:36:09;;;;;;;5.63;5.22;;;;;;;7.68;100.00;97970.59;4151827;28;20644;-49
2022/09/26 03:38:10;;;;;;;10.57;5.78;;;;;;;7.74;100.00;97972.31;4153897;28;20304;-49
2022/09/26 03:40:15;;;;;;;6.18;5.68;;;;;;;7.68;100.00;97971.41;4152122;28;20236;-50
2022/09/26 03:42:16;;;;;;;5.82;4.72;;;;;;;7.68;100.00;97963.25;4166149;28;20210;-50
2022/09/26 03:44:18;;;;;;;5.65;4.38;;;;;;;7.64;100.00;97974.88;4155905;28;20209;-50
2022/09/26 03:46:20;;;;;;;5.28;4.78;;;;;;;7.64;100.00;97966.72;4166400;28;20201;-50
2022/09/26 03:48:21;;;;;;;4.75;4.35;;;;;;;7.60;100.00;97970.97;4152714;28;20212;-50
2022/09/26 03:50:24;;;;;;;3.70;3.50;;;;;;;7.66;100.00;97972.72;4166228;28;20224;-50
2022/09/26 03:52:26;;;;;;;4.82;4.35;;;;;;;7.66;100.00;97970.00;4148166;28;20305;-49
2022/09/26 03:54:28;;;;;;;4.18;3.88;;;;;;;7.63;100.00;97974.03;4156630;28;20205;-50
2022/09/26 03:56:30;;;;;;;11.15;3.92;;;;;;;7.64;100.00;97961.25;4161428;28;20203;-50
2022/09/26 03:58:31;;;;;;;5.20;4.18;;;;;;;7.66;100.00;97961.84;4145798;28;20228;-50
2022/09/26 04:00:33;;;;;;;4.40;4.10;;;;;;;7.66;100.00;97959.13;4150369;28;20232;-50
2022/09/26 04:02:35;;;;;;;5.32;4.25;;;;;;;7.59;100.00;97958.44;4148915;28;20220;-49
2022/09/26 04:04:37;;;;;;;3.80;3.50;;;;;;;7.58;100.00;97951.34;4149049;28;20267;-50
2022/09/26 04:06:39;;;;;;;5.40;4.85;;;;;;;7.60;100.00;97949.19;4166744;28;20258;-50
2022/09/26 04:08:41;;;;;;;4.68;4.38;;;;;;;7.61;100.00;97945.44;4151569;28;20201;-50
2022/09/26 04:10:43;;;;;;;4.82;4.45;;;;;;;7.57;100.00;97949.72;4146063;28;20319;-49
2022/09/26 04:12:45;;;;;;;4.78;4.40;;;;;;;7.73;100.00;97938.00;4147987;28;20324;-49
2022/09/26 04:14:46;;;;;;;4.03;3.70;;;;;;;7.78;100.00;97929.94;4152647;28;20698;-50
2022/09/26 04:16:48;;;;;;;5.18;4.68;;;;;;;7.70;100.00;97933.06;4151205;28;20232;-50
2022/09/26 04:18:55;;;;;;;5.90;4.70;;;;;;;7.71;100.00;97923.81;4151597;28;20695;-50
2022/09/26 04:20:58;;;;;;;5.65;5.15;;;;;;;7.68;100.00;97925.13;4157478;28;20224;-49
2022/09/26 04:23:00;;;;;;;4.90;4.50;;;;;;;7.69;100.00;97920.53;4142052;28;20614;-49
2022/09/26 04:25:02;;;;;;;5.00;4.60;;;;;;;7.74;100.00;97918.69;4155508;28;20307;-50
2022/09/26 04:27:05;;;;;;;4.80;4.32;;;;;;;7.66;100.00;97918.28;4152731;28;20299;-49
2022/09/26 04:29:07;;;;;;;5.22;4.72;;;;;;;7.73;100.00;97908.88;4159964;28;20627;-49
2022/09/26 04:31:12;;;;;;;6.10;5.50;;;;;;;7.70;100.00;97905.84;4153861;28;20671;-49
2022/09/26 04:33:14;;;;;;;4.85;4.45;;;;;;;7.74;100.00;97906.97;4170254;28;20208;-49
2022/09/26 04:35:15;;;;;;;5.00;4.50;;;;;;;7.71;100.00;97907.47;4157094;28;20208;-49
2022/09/26 04:37:19;;;;;;;4.68;3.95;;;;;;;7.76;100.00;97907.56;4151535;28;20576;-48
2022/09/26 04:39:22;;;;;;;5.10;4.57;;;;;;;7.71;100.00;97907.47;4154573;28;20304;-49
2022/09/26 04:41:23;;;;;;;4.78;4.38;;;;;;;7.71;100.00;97910.19;4151285;28;20276;-49
2022/09/26 04:43:32;;;;;;;4.65;4.25;;;;;;;7.91;100.00;97902.38;4152366;28;20240;-49
2022/09/26 04:45:41;;;;;;;4.95;4.55;;;;;;;7.93;100.00;97894.75;4152742;28;20201;-48
2022/09/26 04:47:43;;;;;;;7.55;5.15;;;;;;;8.00;100.00;97890.81;4169890;28;20620;-49
2022/09/26 04:49:50;;;;;;;6.55;5.90;;;;;;;7.88;100.00;97891.97;4155055;28;20225;-48
2022/09/26 04:51:52;;;;;;;5.95;5.20;;;;;;;7.91;100.00;97886.03;4152507;28;20230;-49
2022/09/26 04:53:54;;;;;;;7.90;5.50;;;;;;;7.77;100.00;97881.97;4166592;28;20719;-49
2022/09/26 04:55:56;;;;;;;6.25;5.82;;;;;;;7.76;100.00;97888.50;4156385;28;20208;-49
2022/09/26 04:57:58;;;;;;;5.63;5.13;;;;;;;7.76;100.00;97889.31;4139223;28;20236;-49
2022/09/26 05:00:00;;;;;;;8.13;5.45;;;;;;;7.86;100.00;97884.06;4148913;28;20226;-49
2022/09/26 05:02:07;;;;;;;6.20;5.75;;;;;;;7.80;100.00;97889.66;4147246;28;20764;-50
2022/09/26 05:04:09;;;;;;;5.13;4.80;;;;;;;7.87;100.00;97876.69;4154690;28;20208;-48
2022/09/26 05:06:12;;;;;;;5.35;5.05;;;;;;;7.90;100.00;97878.94;4137737;28;20300;-49
2022/09/26 05:08:16;;;;;;;5.35;4.85;;;;;;;7.83;100.00;97879.06;4151573;28;20307;-50
2022/09/26 05:10:18;;;;;;;5.25;4.85;;;;;;;7.95;100.00;97879.00;4156198;28;20261;-49
2022/09/26 05:12:19;;;;;;;5.35;4.93;;;;;;;7.87;100.00;97879.41;4152265;28;20316;-49
2022/09/26 05:14:21;;;;;;;5.53;5.13;;;;;;;7.81;100.00;97872.25;4152630;28;20237;-50
2022/09/26 05:16:22;;;;;;;5.60;5.20;;;;;;;7.78;100.00;97867.28;4159201;28;20610;-49
2022/09/26 05:18:25;;;;;;;5.72;5.13;;;;;;;7.80;100.00;97873.31;4155009;28;20213;-49
2022/09/26 05:20:30;;;;;;;6.15;5.53;;;;;;;7.77;100.00;97862.94;4156658;28;20335;-48
2022/09/26 05:22:32;;;;;;;6.78;6.28;;;;;;;7.73;100.00;97868.03;4154732;28;20250;-49
2022/09/26 05:27:04;;;;;;;6.85;6.22;;;;;;;7.82;100.00;97866.53;4128100;28;20209;-49
2022/09/26 05:29:06;;;;;;;6.10;5.53;;;;;;;7.72;100.00;97865.56;4156138;28;20212;-49
2022/09/26 05:31:09;;;;;;;6.30;5.05;;;;;;;7.56;100.00;97855.50;4153294;28;20789;-49
2022/09/26 05:33:12;;;;;;;6.07;5.57;;;;;;;7.56;100.00;97863.66;4135920;28;20228;-49
2022/09/26 05:35:14;;;;;;;5.60;5.20;;;;;;;7.60;100.00;97864.81;4165332;28;20215;-49
2022/09/26 05:37:15;;;;;;;6.35;5.95;;;;;;;7.57;100.00;97868.03;4153634;28;20213;-49
2022/09/26 05:41:49;;;;;;;5.82;5.43;;;;;;;7.63;100.00;97861.59;4153956;28;20219;-49
2022/09/26 05:44:31;;;;;;;6.28;5.78;;;;;;;7.59;100.00;97857.72;4147542;28;20251;-54
2022/09/26 05:46:49;;;;;;;5.32;4.95;;;;;;;7.56;100.00;97855.50;4156500;28;20263;-49
2022/09/26 05:49:08;;;;;;;8.30;4.53;;;;;;;7.56;100.00;97855.50;4154775;28;20247;-49
2022/09/26 05:51:23;;;;;;;5.88;4.38;;;;;;;7.56;100.00;97855.50;4149679;28;20245;-49
2022/09/26 05:53:36;;;;;;;5.38;4.95;;;;;;;7.54;100.00;97857.63;4166230;28;20212;-49
2022/09/26 05:55:53;;;;;;;4.88;4.60;;;;;;;7.51;100.00;97853.53;4157051;28;20204;-48
2022/09/26 05:58:06;;;;;;;6.13;5.60;;;;;;;7.48;100.00;97859.44;4162705;28;20209;-50
2022/09/26 06:00:20;;;;;;;6.45;5.90;;;;;;;7.57;100.00;97857.16;4150102;28;20225;-49
2022/09/26 06:02:30;;;;;;;7.03;6.35;;;;;;;7.64;100.00;97850.47;4154893;28;20254;-49
2022/09/26 06:04:39;;;;;;;7.20;5.75;;;;;;;7.68;100.00;97856.25;4149189;28;20201;-50
2022/09/26 06:06:43;;;;;;;6.47;5.97;;;;;;;7.73;100.00;97851.69;4149651;28;20701;-50
2022/09/26 06:08:48;;;;;;;7.15;6.45;;;;;;;7.72;100.00;97849.22;4167690;28;20447;-48
2022/09/26 06:10:52;;;;;;;7.15;6.65;;;;;;;7.58;100.00;97847.91;4151318;28;20224;-49
2022/09/26 06:13:02;;;;;;;7.15;6.43;;;;;;;7.66;100.00;97850.22;4153507;28;20245;-49
2022/09/26 06:15:05;;;;;;;7.93;6.78;;;;;;;7.63;100.00;97851.53;4165712;28;20839;-49
2022/09/26 06:17:06;;;;;;;6.80;6.20;;;;;;;7.66;100.00;97844.75;4167651;28;20299;-50
2022/09/26 06:19:08;;;;;;;7.97;6.88;;;;;;;7.82;100.00;97846.66;4151950;28;20300;-49
2022/09/26 06:21:12;;;;;;;9.23;8.52;;;;;;;7.83;100.00;97842.88;4165342;28;20224;-49
2022/09/26 06:23:14;;;;;;;8.88;8.18;;;;;;;8.12;100.00;97844.38;4148311;28;20229;-49
2022/09/26 06:25:16;;;;;;;9.70;9.00;;;;;;;8.01;100.00;97842.59;4143662;28;20237;-49
2022/09/26 06:27:17;;;;;;;10.50;9.85;;;;;;;8.29;100.00;97845.22;4151991;28;20582;-50
2022/09/26 06:29:22;;;;;;;10.32;9.60;;;;;;;8.79;100.00;97838.50;4155725;28;20209;-49
2022/09/26 06:31:25;;;;;;;11.38;10.18;;;;;;;9.39;100.00;97832.81;4140496;28;20671;-49
2022/09/26 06:33:27;;;;;;;11.15;10.15;;;;;;;9.65;100.00;97831.97;4169177;28;20217;-49
2022/09/26 06:35:33;;;;;;;10.75;9.82;;;;;;;9.71;100.00;97823.56;4154004;28;20232;-49
2022/09/26 06:37:38;;;;;;;9.32;8.73;;;;;;;9.79;100.00;97819.50;4167065;28;20199;-49
2022/09/26 06:39:42;;;;;;;7.57;6.95;;;;;;;10.09;100.00;97823.31;4166054;28;20320;-49
2022/09/26 06:41:44;;;;;;;6.90;6.25;;;;;;;10.19;98.71;97811.59;4168233;28;20211;-49
2022/09/26 06:43:46;;;;;;;10.15;6.80;;;;;;;10.19;98.93;97815.19;4150404;28;20209;-49
2022/09/26 06:45:48;;;;;;;7.10;6.50;;;;;;;10.33;98.27;97810.03;4148398;28;20205;-48
2022/09/26 06:47:50;;;;;;;7.47;6.88;;;;;;;10.14;98.52;97820.59;4149143;28;20209;-48
2022/09/26 06:49:51;;;;;;;6.38;5.75;;;;;;;10.70;98.75;97819.81;4150296;28;20225;-51
2022/09/26 06:51:53;;;;;;;6.68;5.55;;;;;;;11.07;97.53;97810.34;4158335;28;20243;-49
2022/09/26 06:53:55;;;;;;;7.15;6.65;;;;;;;12.39;94.91;97810.91;4160207;28;20247;-49
2022/09/26 06:55:57;;;;;;;6.30;5.80;;;;;;;12.61;92.51;97808.63;4156368;28;20688;-49
2022/09/26 06:57:59;;;;;;;5.80;5.25;;;;;;;12.64;91.06;97799.81;4161617;28;20236;-49
2022/09/26 07:00:01;;;;;;;5.53;5.20;;;;;;;13.32;89.56;97803.63;4154180;28;20279;-49
2022/09/26 07:02:11;;;;;;;6.03;5.63;;;;;;;13.59;87.18;97795.72;4171223;28;20595;-49
2022/09/26 07:04:14;;;;;;;5.65;5.25;;;;;;;14.28;81.84;97791.53;4154327;28;20568;-49
2022/09/26 07:06:16;;;;;;;5.65;5.22;;;;;;;14.33;83.38;97793.41;4156618;28;20629;-49
2022/09/26 07:08:18;;;;;;;3.92;3.63;;;;;;;14.54;81.26;97795.66;4143039;28;20252;-49
2022/09/26 07:10:20;;;;;;;4.55;4.25;;;;;;;14.25;82.03;97794.06;4142578;28;20229;-47
2022/09/26 07:12:23;;;;;;;4.63;4.20;;;;;;;14.10;83.83;97796.94;4154823;28;20233;-49
2022/09/26 07:14:26;;;;;;;8.02;5.40;;;;;;;14.53;84.05;97788.50;4156855;28;21562;-49
2022/09/26 07:16:33;;;;;;;5.25;4.35;;;;;;;14.87;80.97;97788.34;4153910;28;20213;-48
2022/09/26 07:18:36;;;;;;;5.22;4.50;;;;;;;14.29;81.51;97793.16;4170061;28;20217;-48
2022/09/26 07:20:39;;;;;;;6.18;4.72;;;;;;;14.49;82.79;97787.44;4141017;28;20229;-49
2022/09/26 07:22:42;;;;;;;4.93;4.50;;;;;;;14.66;84.29;97785.06;4170263;28;20196;-49
2022/09/26 07:24:45;;;;;;;4.43;4.05;;;;;;;13.57;83.50;97784.19;4152762;28;20232;-48
2022/09/26 07:26:55;;;;;;;4.65;4.18;;;;;;;14.32;83.58;97781.59;4153549;28;20232;-49
2022/09/26 07:28:57;;;;;;;4.88;4.25;;;;;;;15.25;82.39;97788.13;4160361;28;20211;-50
2022/09/26 07:30:59;;;;;;;4.53;4.05;;;;;;;14.98;80.65;97785.19;4157222;28;21157;-49
2022/09/26 07:33:02;;;;;;;12.43;4.30;;;;;;;15.25;78.69;97790.88;4160622;28;20216;-48
2022/09/26 07:35:05;;;;;;;4.60;4.22;;;;;;;14.91;83.37;97789.41;4172019;28;20215;-48
2022/09/26 07:37:08;;;;;;;4.57;4.18;;;;;;;14.49;81.85;97786.63;4155320;28;20201;-49
2022/09/26 07:39:13;;;;;;;6.72;3.78;;;;;;;14.09;83.16;97782.34;4156062;28;20635;-48
2022/09/26 07:41:16;;;;;;;5.13;4.60;;;;;;;13.96;84.83;97788.53;4138409;28;20260;-49
2022/09/26 07:43:22;;;;;;;6.07;4.53;;;;;;;13.34;85.59;97780.25;4171927;28;20254;-49
2022/09/26 07:50:24;;;;;;;4.68;4.25;;;;;;;12.60;89.99;97770.47;4152701;28;20661;-48
2022/09/26 07:52:27;;;;;;;4.43;4.13;;;;;;;12.68;90.31;97781.69;4153483;28;20205;-48
2022/09/26 07:54:37;;;;;;;5.57;5.13;;;;;;;12.28;92.00;97776.34;4173083;28;20211;-48
2022/09/26 07:56:39;;;;;;;5.47;5.03;;;;;;;12.68;92.22;97773.47;4137660;28;20727;-48
2022/09/26 07:58:42;;;;;;;4.85;4.38;;;;;;;12.15;92.85;97765.13;4138703;28;20252;-49
2022/09/26 08:00:49;;;;;;;5.20;4.70;;;;;;;11.69;94.62;97766.31;4140847;28;20259;-48
2022/09/26 08:02:51;;;;;;;5.25;4.85;;;;;;;11.66;96.03;97756.75;4154762;28;20204;-49
2022/09/26 08:04:53;;;;;;;6.65;5.60;;;;;;;11.55;97.86;97766.03;4138604;28;20699;-49
2022/09/26 08:07:01;;;;;;;6.03;5.18;;;;;;;11.68;96.55;97759.19;4165913;28;20333;-49
2022/09/26 08:09:03;;;;;;;5.95;5.45;;;;;;;11.98;96.81;97759.97;4155750;28;20340;-49
2022/09/26 08:11:23;;;;;;;5.25;4.80;;;;;;;11.87;95.90;97763.84;4162196;28;20251;-49
2022/09/26 08:13:28;;;;;;;4.93;4.47;;;;;;;11.82;96.17;97758.34;4158013;28;20217;-50
2022/09/26 08:15:30;;;;;;;5.57;4.95;;;;;;;11.75;96.27;97762.47;4153976;28;20228;-49
2022/09/26 08:17:35;;;;;;;8.05;4.78;;;;;;;11.85;95.87;97757.78;4158749;28;20681;-50
2022/09/26 08:19:36;;;;;;;6.32;5.50;;;;;;;11.99;96.78;97761.63;4169290;28;20294;-49
2022/09/26 08:21:41;;;;;;;5.15;4.78;;;;;;;11.94;95.87;97750.66;4159590;28;20752;-50
2022/09/26 08:23:43;;;;;;;4.82;4.53;;;;;;;12.06;96.44;97764.91;4155531;28;20217;-50
2022/09/26 08:25:44;;;;;;;4.88;4.47;;;;;;;11.82;96.98;97758.34;4153424;28;20631;-49
2022/09/26 08:27:47;;;;;;;7.68;4.95;;;;;;;12.11;95.58;97748.41;4154556;28;20200;-50
2022/09/26 08:29:50;;;;;;;5.13;4.78;;;;;;;11.96;94.97;97753.13;4147573;28;20221;-49
2022/09/26 08:31:53;;;;;;;5.20;4.70;;;;;;;12.34;94.45;97742.31;4155615;28;20288;-49
2022/09/26 08:33:55;;;;;;;4.10;3.80;;;;;;;12.50;93.71;97743.88;4153938;28;20243;-50
2022/09/26 08:36:08;;;;;;;4.10;3.72;;;;;;;12.39;93.16;97753.28;4152514;28;20215;-50
2022/09/26 08:38:13;;;;;;;4.82;4.15;;;;;;;11.79;95.64;97745.22;4169708;28;20561;-51
2022/09/26 08:40:14;;;;;;;3.90;3.53;;;;;;;12.02;95.67;97755.56;4150365;28;20313;-51
2022/09/26 08:42:34;;;;;;;4.35;3.47;;;;;;;12.46;94.16;97751.06;4156547;28;20657;-51
2022/09/26 08:44:40;;;;;;;4.28;4.00;;;;;;;13.25;93.94;97743.47;4146993;28;20584;-51
2022/09/26 08:49:21;;;;;;;3.78;3.47;;;;;;;12.27;92.44;97741.78;4153715;28;20192;-50
2022/09/26 08:51:23;;;;;;;3.47;3.10;;;;;;;12.00;92.44;97746.81;4156318;28;20209;-51
2022/09/26 08:53:41;;;;;;;8.85;3.40;;;;;;;11.88;93.91;97753.66;4157859;28;20220;-51
2022/09/26 08:55:44;;;;;;;4.10;3.60;;;;;;;11.79;94.89;97756.19;4156996;28;20295;-51
2022/09/26 08:57:55;;;;;;;4.00;3.60;;;;;;;11.64;96.42;97745.22;4154112;28;20215;-52
2022/09/26 08:59:57;;;;;;;4.18;3.88;;;;;;;11.79;96.10;97752.59;4167014;28;20220;-51
2022/09/26 09:02:03;;;;;;;3.78;3.47;;;;;;;11.86;95.28;97745.75;4152948;28;20292;-51
2022/09/26 09:04:14;;;;;;;4.28;3.78;;;;;;;11.73;95.49;97740.84;4155045;28;20234;-50
2022/09/26 09:06:16;;;;;;;4.80;3.92;;;;;;;12.14;95.39;97739.66;4154774;28;20306;-51
2022/09/26 09:08:23;;;;;;;4.80;3.22;;;;;;;12.67;93.15;97718.81;4142282;28;20671;-51
2022/09/26 09:10:33;;;;;;;5.95;3.35;;;;;;;12.51;92.85;97728.25;4155698;28;20312;-52
2022/09/26 09:13:08;;;;;;;3.47;3.10;;;;;;;12.09;94.37;97725.09;4147824;28;20297;-52
2022/09/26 09:15:51;;;;;;;3.80;3.42;;;;;;;12.53;94.31;97723.28;4148810;28;20227;-52
2022/09/26 09:18:15;;;;;;;3.78;3.17;;;;;;;12.63;91.54;97718.56;4100627;28;20206;-51
2022/09/26 09:20:24;;;;;;;4.18;3.00;;;;;;;12.24;91.02;97720.41;4153036;28;20751;-52
2022/09/26 09:22:48;;;;;;;2.63;2.42;;;;;;;12.37;91.25;97716.25;4140653;28;20313;-54
2022/09/26 09:24:58;;;;;;;2.70;2.50;;;;;;;12.39;91.33;97712.13;4152011;28;20205;-52
2022/09/26 09:27:19;;;;;;;4.50;3.08;;;;;;;12.65;90.15;97710.88;4148665;28;20209;-52
2022/09/26 09:30:09;;;;;;;5.40;2.75;;;;;;;13.32;87.93;97704.69;4151499;28;20251;-52
2022/09/26 09:32:20;;;;;;;4.07;2.65;;;;;;;13.26;87.69;97701.19;4150504;28;20205;-52
2022/09/26 09:34:28;;;;;;;4.22;2.58;;;;;;;13.35;87.51;97693.94;4146680;28;20239;-50
2022/09/26 09:36:36;;;;;;;3.10;2.80;;;;;;;14.24;86.57;97696.09;4154176;28;20539;-52
2022/09/26 09:38:41;;;;;;;2.13;1.95;;;;;;;13.95;84.54;97693.34;4163625;28;20614;-52
2022/09/26 09:40:51;;;;;;;2.15;2.03;;;;;;;14.08;85.67;97689.06;4167533;28;20230;-51
2022/09/26 09:43:05;;;;;;;5.20;2.25;;;;;;;13.25;85.48;97682.22;4152077;28;20422;-48
2022/09/26 09:45:19;;;;;;;2.40;2.20;;;;;;;13.67;85.93;97685.13;4163767;28;20766;-51
2022/09/26 09:47:20;;;;;;;2.35;2.08;;;;;;;13.84;85.64;97686.31;4143328;28;20243;-52
2022/09/26 09:49:23;;;;;;;2.45;2.33;;;;;;;13.87;86.14;97676.66;4154144;28;20216;-52
2022/09/26 09:51:47;;;;;;;2.22;1.92;;;;;;;13.97;86.00;97680.13;4155843;28;20303;-52
2022/09/26 09:54:20;;;;;;;2.38;2.17;;;;;;;14.11;86.21;97678.31;4153842;28;20235;-51
2022/09/26 09:56:50;;;;;;;2.97;2.00;;;;;;;13.67;84.67;97669.47;4151045;28;20232;-53
2022/09/26 09:59:23;;;;;;;2.38;1.90;;;;;;;13.60;86.58;97674.47;4154076;28;20247;-51
2022/09/26 10:01:38;;;;;;;3.08;2.78;;;;;;;13.56;85.92;97669.84;4167757;28;20266;-50
2022/09/26 10:04:02;;;;;;;4.00;2.70;;;;;;;13.50;86.58;97663.56;4145716;28;20236;-50
2022/09/26 10:06:04;;;;;;;3.22;2.28;;;;;;;13.71;85.02;97659.50;4149185;28;20288;-49
2022/09/26 10:08:14;;;;;;;2.90;2.58;;;;;;;13.60;86.14;97647.00;4145872;28;20343;-51
2022/09/26 10:10:20;;;;;;;2.10;1.90;;;;;;;13.46;85.98;97639.72;4148859;28;20244;-50
2022/09/26 10:12:29;;;;;;;3.20;2.80;;;;;;;13.77;85.45;97641.84;4156353;28;20213;-51
2022/09/26 10:14:38;;;;;;;3.30;2.45;;;;;;;13.99;85.50;97639.41;4166004;28;20246;-51